Time;durP1;ratioP1;P1;durP2;ratioP2;P2;SDS_P1;SDS_P2;PMS_P1;PMS_P2;Temp;Humidity;BMP_temperature;BMP_pressure;BME280_temperature;BME280_humidity;BME280_pressure;Samples;Min_cycle;Max_cycle;Signal;HPM_P1;HPM_P2
2023/08/07 00:02:19;;;;;;;1.30;0.20;;;;;;;19.39;57.21;99065.91;4477757;32;34663;-73
2023/08/07 00:04:47;;;;;;;0.30;0.15;;;;;;;19.28;57.46;99062.44;4476461;32;34273;-74
2023/08/07 00:07:18;;;;;;;0.70;0.20;;;;;;;19.58;56.33;99060.56;4477526;32;33674;-73
2023/08/07 00:09:45;;;;;;;1.63;0.20;;;;;;;19.50;56.49;99057.97;4477796;32;34239;-73
2023/08/07 00:12:13;;;;;;;0.30;0.10;;;;;;;19.21;57.33;99066.78;4481103;32;33273;-74
2023/08/07 00:14:41;;;;;;;0.30;0.20;;;;;;;19.37;57.29;99057.16;4479241;32;33853;-74
2023/08/07 00:17:08;;;;;;;1.17;0.30;;;;;;;19.23;57.44;99061.56;4472684;32;33545;-74
2023/08/07 00:19:36;;;;;;;1.70;0.20;;;;;;;19.29;57.35;99058.91;4472843;32;34435;-74
2023/08/07 00:22:04;;;;;;;0.75;0.30;;;;;;;19.45;57.09;99050.13;4449163;32;32293;-74
2023/08/07 00:24:31;;;;;;;1.10;0.20;;;;;;;19.45;56.82;99055.37;4477646;32;34507;-74
2023/08/07 00:26:59;;;;;;;3.00;0.30;;;;;;;19.41;56.97;99048.37;4447324;32;31577;-74
2023/08/07 00:29:27;;;;;;;0.30;0.20;;;;;;;19.08;58.06;99056.31;4479587;32;34535;-73
2023/08/07 00:31:54;;;;;;;1.47;0.20;;;;;;;19.24;57.44;99050.19;4479211;32;34356;-74
2023/08/07 00:34:22;;;;;;;1.20;0.20;;;;;;;19.26;57.32;99056.31;4475912;32;33701;-74
2023/08/07 00:36:49;;;;;;;0.52;0.20;;;;;;;19.25;57.73;99049.28;4469300;32;33399;-74
2023/08/07 00:39:17;;;;;;;0.80;0.25;;;;;;;19.48;56.92;99058.88;4471041;32;34471;-73
2023/08/07 00:41:45;;;;;;;0.77;0.20;;;;;;;19.20;57.60;99064.16;4473194;32;34620;-73
2023/08/07 00:44:13;;;;;;;1.30;0.20;;;;;;;19.15;57.85;99072.06;4470427;32;33547;-74
2023/08/07 00:46:41;;;;;;;0.40;0.20;;;;;;;19.34;57.00;99054.53;4465435;32;31763;-74
2023/08/07 00:49:11;;;;;;;0.80;0.20;;;;;;;19.49;56.66;99055.34;4472142;32;33898;-74
2023/08/07 00:51:39;;;;;;;2.00;0.20;;;;;;;19.28;57.23;99062.44;4471427;32;34140;-74
2023/08/07 00:54:08;;;;;;;0.67;0.20;;;;;;;19.31;56.87;99057.16;4475220;32;33576;-74
2023/08/07 00:56:36;;;;;;;1.48;0.20;;;;;;;19.28;56.72;99046.66;4465511;32;33696;-73
2023/08/07 00:59:04;;;;;;;0.85;0.20;;;;;;;19.19;57.48;99051.94;4459911;32;33703;-74
2023/08/07 01:01:31;;;;;;;0.77;0.20;;;;;;;19.12;57.65;99061.56;4473172;32;34352;-74
2023/08/07 01:04:00;;;;;;;0.25;0.20;;;;;;;19.00;57.97;99046.69;4480016;32;34381;-74
2023/08/07 01:06:27;;;;;;;2.00;0.20;;;;;;;18.93;58.22;99058.09;4470475;32;33060;-74
2023/08/07 01:08:55;;;;;;;1.00;0.30;;;;;;;19.01;57.90;99055.47;4471684;32;33639;-74
2023/08/07 01:11:45;;;;;;;1.83;0.40;;;;;;;18.89;58.30;99063.34;4461235;32;33356;-74
2023/08/07 01:14:30;;;;;;;0.95;0.25;;;;;;;18.89;58.52;99058.09;4456217;32;32657;-74
2023/08/07 01:17:06;;;;;;;1.40;0.20;;;;;;;19.19;57.31;99062.44;4461832;32;31634;-74
2023/08/07 01:19:34;;;;;;;0.30;0.20;;;;;;;19.09;57.33;99061.59;4472365;32;32859;-74
2023/08/07 01:22:08;;;;;;;0.47;0.20;;;;;;;18.93;58.32;99065.97;4471399;32;34412;-73
2023/08/07 01:24:39;;;;;;;1.27;0.28;;;;;;;19.32;56.46;99064.16;4471519;32;32727;-74
2023/08/07 01:27:18;;;;;;;0.67;0.27;;;;;;;19.13;57.41;99079.06;4474342;32;33312;-74
2023/08/07 01:29:50;;;;;;;0.20;0.20;;;;;;;19.15;57.31;99092.19;4470853;32;32941;-74
2023/08/07 01:32:47;;;;;;;0.30;0.20;;;;;;;19.38;56.16;99085.16;4472603;32;34317;-74
2023/08/07 01:35:16;;;;;;;0.65;0.20;;;;;;;19.23;56.44;99082.56;4472654;32;33004;-74
2023/08/07 01:37:45;;;;;;;0.55;0.20;;;;;;;19.19;56.49;99093.94;4466998;32;33594;-74
2023/08/07 01:40:13;;;;;;;0.50;0.20;;;;;;;19.16;56.26;99088.69;4478395;32;34770;-74
2023/08/07 01:42:41;;;;;;;0.40;0.20;;;;;;;18.95;57.32;99095.72;4459200;32;33455;-73
2023/08/07 01:45:09;;;;;;;0.55;0.20;;;;;;;19.19;55.84;99083.44;4453590;32;33701;-74
2023/08/07 01:47:36;;;;;;;1.60;0.20;;;;;;;19.22;55.97;99083.44;4471442;32;33331;-74
2023/08/07 01:50:06;;;;;;;0.55;0.22;;;;;;;19.03;56.52;99082.59;4471020;32;33712;-74
2023/08/07 01:52:33;;;;;;;1.20;0.20;;;;;;;18.86;56.54;99093.09;4464705;32;34301;-73
2023/08/07 01:55:01;;;;;;;0.20;0.20;;;;;;;18.89;56.08;99095.72;4478363;32;33615;-74
2023/08/07 01:57:30;;;;;;;0.40;0.20;;;;;;;18.72;57.04;99097.44;4471950;32;33272;-73
2023/08/07 01:59:58;;;;;;;3.05;0.30;;;;;;;18.91;55.88;99083.47;4474644;32;33763;-73
2023/08/07 02:02:25;;;;;;;0.43;0.20;;;;;;;18.63;57.38;99093.91;4474203;32;33681;-73
2023/08/07 02:04:53;;;;;;;0.90;0.30;;;;;;;18.85;56.55;99093.94;4473403;32;34427;-74
2023/08/07 02:07:21;;;;;;;0.90;0.23;;;;;;;18.76;56.72;99088.69;4473168;32;34019;-74
2023/08/07 02:09:48;;;;;;;0.60;0.20;;;;;;;18.94;55.99;99093.09;4471022;32;33451;-74
2023/08/07 02:12:16;;;;;;;1.43;0.20;;;;;;;19.03;55.57;99080.84;4460567;32;34463;-74
2023/08/07 02:14:43;;;;;;;0.88;0.25;;;;;;;18.86;56.16;99085.22;4477405;31;33875;-73
2023/08/07 02:17:11;;;;;;;1.00;0.20;;;;;;;18.60;55.90;99087.78;4463175;32;33209;-74
2023/08/07 02:19:38;;;;;;;0.80;0.30;;;;;;;18.91;55.19;99087.81;4472434;32;34448;-74
2023/08/07 02:22:06;;;;;;;0.80;0.30;;;;;;;18.96;55.20;99086.94;4481346;32;33875;-74
2023/08/07 02:24:34;;;;;;;0.30;0.20;;;;;;;18.88;55.42;99088.72;4482499;32;33352;-74
2023/08/07 02:27:02;;;;;;;0.67;0.30;;;;;;;18.90;55.42;99094.84;4482172;32;34001;-74
2023/08/07 02:29:29;;;;;;;0.93;0.30;;;;;;;18.93;55.33;99081.72;4482374;32;33761;-73
2023/08/07 02:31:57;;;;;;;0.73;0.40;;;;;;;19.02;54.30;99086.94;4481724;32;33811;-73
2023/08/07 02:34:25;;;;;;;1.05;0.30;;;;;;;18.80;55.19;99095.72;4481754;32;33977;-74
2023/08/07 02:36:52;;;;;;;0.88;0.30;;;;;;;18.83;55.30;99087.84;4480067;32;33299;-73
2023/08/07 02:39:21;;;;;;;0.88;0.40;;;;;;;18.95;54.47;99097.44;4478821;32;33624;-74
2023/08/07 02:41:48;;;;;;;0.50;0.20;;;;;;;18.81;55.16;99094.84;4481715;32;33385;-74
2023/08/07 02:44:17;;;;;;;0.50;0.30;;;;;;;18.89;54.80;99089.59;4481968;32;33670;-74
2023/08/07 02:46:44;;;;;;;0.70;0.30;;;;;;;18.84;54.50;99092.22;4481346;32;33088;-74
2023/08/07 02:49:12;;;;;;;1.42;0.30;;;;;;;18.94;54.21;99099.22;4480097;32;33768;-73
2023/08/07 02:51:40;;;;;;;3.00;0.37;;;;;;;18.92;54.53;99090.47;4481849;32;34794;-74
2023/08/07 02:54:07;;;;;;;0.85;0.30;;;;;;;18.68;55.02;99096.56;4481589;32;34369;-74
2023/08/07 02:56:35;;;;;;;1.10;0.40;;;;;;;18.87;54.07;99105.31;4478776;32;33696;-73
2023/08/07 02:59:02;;;;;;;1.30;0.30;;;;;;;18.94;53.79;99109.69;4478341;32;34627;-73
2023/08/07 03:01:30;;;;;;;2.08;0.40;;;;;;;18.88;54.25;99099.22;4480813;32;33705;-74
2023/08/07 03:03:58;;;;;;;0.90;0.40;;;;;;;18.98;54.22;99105.34;4481067;32;33513;-74
2023/08/07 03:06:25;;;;;;;0.70;0.25;;;;;;;18.90;54.38;99107.09;4478926;32;33643;-73
2023/08/07 03:08:53;;;;;;;1.87;0.40;;;;;;;18.98;54.24;99116.69;4478292;32;33337;-74
2023/08/07 03:11:21;;;;;;;1.15;0.30;;;;;;;18.92;54.52;99110.59;4480569;32;34742;-74
2023/08/07 03:13:49;;;;;;;1.90;0.30;;;;;;;18.92;54.57;99115.84;4478301;32;34111;-74
2023/08/07 03:16:16;;;;;;;2.15;0.37;;;;;;;18.97;53.96;99109.72;4478774;32;33150;-74
2023/08/07 03:18:44;;;;;;;1.60;0.30;;;;;;;18.89;54.31;99121.97;4472590;32;33686;-74
2023/08/07 03:21:12;;;;;;;1.00;0.40;;;;;;;18.92;54.32;99116.69;4473444;32;34604;-73
2023/08/07 03:23:40;;;;;;;1.50;0.32;;;;;;;18.75;55.33;99114.03;4470947;32;34423;-74
2023/08/07 03:26:10;;;;;;;0.40;0.30;;;;;;;19.02;54.26;99114.94;4483870;32;33039;-73
2023/08/07 03:28:48;;;;;;;1.37;0.43;;;;;;;18.65;54.81;99107.91;4483687;32;33647;-74
2023/08/07 03:31:17;;;;;;;0.90;0.30;;;;;;;18.57;55.43;99120.12;4478573;32;34268;-74
2023/08/07 03:33:45;;;;;;;2.03;0.35;;;;;;;18.53;55.63;99113.16;4477658;32;33650;-73
2023/08/07 03:36:12;;;;;;;2.33;0.40;;;;;;;18.59;55.27;99105.28;4481852;32;33440;-74
2023/08/07 03:38:42;;;;;;;1.20;0.50;;;;;;;18.61;55.32;99115.78;4483815;32;33853;-74
2023/08/07 03:41:10;;;;;;;1.87;0.40;;;;;;;18.45;55.88;99125.37;4483869;32;34502;-74
2023/08/07 03:43:39;;;;;;;0.80;0.40;;;;;;;18.58;55.74;99134.13;4484043;32;34703;-74
2023/08/07 03:46:07;;;;;;;1.17;0.37;;;;;;;18.50;55.73;99123.63;4483411;32;32935;-74
2023/08/07 03:48:36;;;;;;;1.80;0.40;;;;;;;18.75;54.79;99123.66;4483490;32;34251;-74
2023/08/07 03:51:10;;;;;;;0.93;0.30;;;;;;;18.74;54.15;99133.28;4477497;32;34712;-73
2023/08/07 03:53:38;;;;;;;1.47;0.40;;;;;;;18.77;54.23;99132.41;4483986;32;32820;-74
2023/08/07 03:56:06;;;;;;;1.70;0.45;;;;;;;18.58;54.67;99142.88;4483105;32;32941;-73
2023/08/07 03:58:33;;;;;;;0.90;0.32;;;;;;;18.60;54.55;99135.91;4483693;32;34217;-74
2023/08/07 04:01:01;;;;;;;1.10;0.37;;;;;;;18.41;55.61;99136.72;4483350;32;33879;-74
2023/08/07 04:03:29;;;;;;;0.90;0.30;;;;;;;18.62;55.04;99139.41;4479279;32;34413;-73
2023/08/07 04:05:57;;;;;;;1.27;0.47;;;;;;;18.37;55.60;99148.06;4483584;32;33170;-75
2023/08/07 04:08:24;;;;;;;0.85;0.37;;;;;;;18.52;55.17;99150.72;4483156;32;33845;-74
2023/08/07 04:11:04;;;;;;;1.83;0.47;;;;;;;18.66;54.29;99151.62;4482727;32;33795;-73
2023/08/07 04:13:33;;;;;;;0.88;0.52;;;;;;;18.59;54.94;99155.13;4465605;32;34176;-74
2023/08/07 04:16:03;;;;;;;1.27;0.40;;;;;;;18.56;54.70;99154.22;4479714;32;34049;-74
2023/08/07 04:18:31;;;;;;;2.20;0.40;;;;;;;18.48;55.34;99151.59;4478102;32;33432;-74
2023/08/07 04:21:01;;;;;;;1.95;0.50;;;;;;;18.66;54.50;99154.25;4481963;32;34489;-74
2023/08/07 04:23:28;;;;;;;1.60;0.40;;;;;;;18.77;53.98;99156.03;4482880;32;33390;-74
2023/08/07 04:25:56;;;;;;;2.85;0.40;;;;;;;18.64;54.16;99150.75;4468868;32;33228;-74
2023/08/07 04:28:24;;;;;;;0.77;0.40;;;;;;;18.62;54.42;99165.63;4480150;32;33414;-74
2023/08/07 04:30:51;;;;;;;2.03;0.40;;;;;;;18.75;53.84;99160.38;4478417;32;34654;-74
2023/08/07 04:33:20;;;;;;;2.12;0.50;;;;;;;18.61;54.78;99157.75;4480908;32;33828;-74
2023/08/07 04:35:48;;;;;;;1.30;0.40;;;;;;;18.74;54.17;99163.91;4480612;32;33026;-74
2023/08/07 04:38:16;;;;;;;1.17;0.40;;;;;;;18.84;53.50;99170.94;4483323;32;33822;-74
2023/08/07 04:40:50;;;;;;;1.30;0.50;;;;;;;18.81;53.31;99160.44;4483524;32;33508;-74
2023/08/07 04:43:21;;;;;;;1.58;0.47;;;;;;;18.60;54.12;99161.22;4481246;31;33569;-74
2023/08/07 04:45:52;;;;;;;1.90;0.60;;;;;;;18.81;53.75;99155.19;4477211;32;32747;-74
2023/08/07 04:48:22;;;;;;;1.65;0.40;;;;;;;18.49;54.33;99160.34;4481498;32;33675;-74
2023/08/07 04:50:49;;;;;;;1.58;0.47;;;;;;;18.71;53.63;99166.50;4452960;32;34344;-73
2023/08/07 04:53:17;;;;;;;2.50;0.70;;;;;;;18.75;54.15;99155.16;4457400;32;34264;-72
2023/08/07 04:55:46;;;;;;;1.48;0.40;;;;;;;18.76;54.55;99163.03;4462587;32;33838;-76
2023/08/07 04:58:13;;;;;;;1.77;0.45;;;;;;;19.01;52.98;99161.31;4465756;32;33068;-74
2023/08/07 05:00:41;;;;;;;1.00;0.40;;;;;;;19.14;53.08;99158.69;4459954;32;34186;-74
2023/08/07 05:03:10;;;;;;;1.93;0.57;;;;;;;19.21;53.03;99165.69;4446259;32;33412;-73
2023/08/07 05:05:38;;;;;;;1.20;0.45;;;;;;;19.24;52.39;99157.84;4457198;32;33225;-74
2023/08/07 05:08:05;;;;;;;1.73;0.50;;;;;;;19.41;51.38;99169.19;4452261;32;35198;-74
2023/08/07 05:10:33;;;;;;;2.15;0.50;;;;;;;19.25;52.46;99163.06;4473817;31;34439;-73
2023/08/07 05:13:01;;;;;;;2.83;0.60;;;;;;;19.26;51.65;99158.72;4474080;32;33865;-73
2023/08/07 05:15:30;;;;;;;2.30;0.50;;;;;;;19.27;52.49;99160.44;4477152;32;32958;-74
2023/08/07 05:17:58;;;;;;;2.22;0.50;;;;;;;19.49;51.73;99161.31;4476165;32;34490;-74
2023/08/07 05:20:25;;;;;;;1.02;0.40;;;;;;;19.48;51.92;99158.69;4457207;32;33854;-75
2023/08/07 05:22:53;;;;;;;3.22;0.68;;;;;;;19.66;50.43;99169.13;4479108;32;33772;-74
2023/08/07 05:25:21;;;;;;;1.77;0.50;;;;;;;19.43;50.95;99162.19;4472545;32;34010;-74
2023/08/07 05:27:49;;;;;;;1.27;0.60;;;;;;;19.84;49.58;99169.13;4444621;32;33617;-74
2023/08/07 05:30:16;;;;;;;1.12;0.47;;;;;;;19.75;50.56;99174.41;4471912;32;33724;-74
2023/08/07 05:32:44;;;;;;;1.33;0.45;;;;;;;19.65;50.45;99184.03;4475414;32;33284;-74
2023/08/07 05:35:11;;;;;;;2.08;0.57;;;;;;;19.88;50.33;99195.44;4474237;31;33372;-74
2023/08/07 05:37:39;;;;;;;1.35;0.45;;;;;;;19.91;49.60;99190.12;4480800;32;33744;-74
2023/08/07 05:40:07;;;;;;;1.30;0.57;;;;;;;19.94;49.66;99195.41;4475979;32;34524;-73
2023/08/07 05:42:36;;;;;;;2.10;0.60;;;;;;;19.99;48.89;99196.25;4474067;32;34333;-74
2023/08/07 05:45:04;;;;;;;2.20;0.55;;;;;;;19.67;50.09;99197.16;4478882;32;32897;-74
2023/08/07 05:47:33;;;;;;;2.23;0.60;;;;;;;19.86;49.86;99202.41;4479564;32;33524;-73
2023/08/07 05:50:01;;;;;;;3.20;0.62;;;;;;;19.98;49.52;99197.12;4478625;32;33370;-73
2023/08/07 05:52:30;;;;;;;1.42;0.50;;;;;;;20.04;48.87;99197.09;4479404;32;33441;-74
2023/08/07 05:54:58;;;;;;;2.58;0.50;;;;;;;19.98;49.63;99210.28;4481586;32;33262;-74
2023/08/07 05:57:25;;;;;;;2.37;0.60;;;;;;;20.07;49.87;99215.50;4480742;32;33731;-74
2023/08/07 05:59:53;;;;;;;2.20;0.45;;;;;;;20.25;48.19;99211.06;4478158;32;33693;-73
2023/08/07 06:02:21;;;;;;;2.25;0.60;;;;;;;20.14;47.91;99226.88;4476795;32;33910;-74
2023/08/07 06:04:48;;;;;;;1.20;0.40;;;;;;;20.06;48.78;99221.63;4477982;32;32924;-74
2023/08/07 06:07:16;;;;;;;2.12;0.60;;;;;;;20.33;47.54;99214.53;4480047;32;33744;-75
2023/08/07 06:09:44;;;;;;;2.87;0.50;;;;;;;20.00;49.09;99226.91;4478934;32;34620;-73
2023/08/07 06:12:12;;;;;;;2.20;0.50;;;;;;;20.34;48.77;99225.06;4471975;32;34455;-74
2023/08/07 06:14:39;;;;;;;2.13;0.50;;;;;;;19.98;49.06;99233.94;4478744;32;33002;-75
2023/08/07 06:17:07;;;;;;;0.77;0.40;;;;;;;20.19;48.76;99228.63;4470333;32;33873;-74
2023/08/07 06:19:34;;;;;;;2.03;0.40;;;;;;;20.34;47.44;99227.69;4478849;32;33858;-73
2023/08/07 06:22:02;;;;;;;0.80;0.40;;;;;;;20.33;46.65;99230.31;4481072;32;33359;-74
2023/08/07 06:24:29;;;;;;;1.50;0.45;;;;;;;19.77;48.54;99235.72;4477957;32;33617;-73
2023/08/07 06:26:57;;;;;;;1.98;0.40;;;;;;;20.04;47.19;99233.91;4477721;32;33773;-73
2023/08/07 06:29:25;;;;;;;1.23;0.40;;;;;;;19.95;47.61;99231.31;4470018;32;33777;-75
2023/08/07 06:31:52;;;;;;;1.60;0.43;;;;;;;20.07;47.68;99233.03;4466449;32;33713;-73
2023/08/07 06:34:20;;;;;;;0.85;0.50;;;;;;;20.13;47.37;99239.16;4468236;32;33200;-74
2023/08/07 06:36:47;;;;;;;2.95;0.43;;;;;;;20.35;47.17;99233.81;4464430;32;33275;-75
2023/08/07 06:39:15;;;;;;;2.28;0.30;;;;;;;20.31;46.78;99232.09;4473802;32;33568;-74
2023/08/07 06:41:43;;;;;;;2.00;0.40;;;;;;;20.23;46.72;99240.00;4480886;32;34516;-74
2023/08/07 06:44:11;;;;;;;1.50;0.40;;;;;;;20.02;47.64;99247.06;4472800;32;33249;-74
2023/08/07 06:46:39;;;;;;;0.70;0.40;;;;;;;20.22;46.86;99249.66;4474742;32;34673;-74
2023/08/07 06:49:06;;;;;;;3.00;0.40;;;;;;;20.27;47.39;99240.88;4459098;32;33650;-73
2023/08/07 06:51:34;;;;;;;1.35;0.37;;;;;;;20.27;47.99;99246.13;4469930;32;33646;-74
2023/08/07 06:54:01;;;;;;;1.02;0.40;;;;;;;20.26;47.76;99247.00;4476969;32;33142;-74
2023/08/07 06:56:29;;;;;;;2.10;0.40;;;;;;;20.39;47.47;99252.19;4472168;32;35203;-74
2023/08/07 06:58:57;;;;;;;1.10;0.35;;;;;;;20.31;47.19;99255.75;4480951;32;33638;-75
2023/08/07 07:01:24;;;;;;;1.17;0.40;;;;;;;20.46;46.41;99249.56;4477741;32;33778;-74
2023/08/07 07:03:52;;;;;;;0.93;0.40;;;;;;;20.48;47.50;99251.31;4481198;32;33363;-75
2023/08/07 07:06:20;;;;;;;1.08;0.30;;;;;;;20.54;47.98;99253.03;4483260;32;34325;-74
2023/08/07 07:08:48;;;;;;;1.17;0.40;;;;;;;20.86;47.40;99244.13;4474864;32;32266;-73
2023/08/07 07:11:16;;;;;;;1.77;0.50;;;;;;;20.93;45.52;99244.06;4484114;32;33865;-74
2023/08/07 07:13:46;;;;;;;1.02;0.40;;;;;;;20.54;47.22;99261.78;4479899;32;33133;-74
2023/08/07 07:16:14;;;;;;;1.00;0.30;;;;;;;20.45;46.94;99251.31;4481047;32;33783;-72
2023/08/07 07:18:42;;;;;;;1.77;0.50;;;;;;;20.51;46.60;99261.78;4483275;32;34424;-74
2023/08/07 07:21:10;;;;;;;1.00;0.40;;;;;;;20.61;46.59;99253.03;4466472;32;33726;-73
2023/08/07 07:23:37;;;;;;;1.70;0.40;;;;;;;20.51;47.21;99251.28;4476281;32;34175;-73
2023/08/07 07:26:05;;;;;;;1.87;0.50;;;;;;;20.64;47.21;99262.66;4475774;32;34032;-75
2023/08/07 07:28:32;;;;;;;0.80;0.40;;;;;;;20.57;48.00;99251.28;4479588;32;33920;-74
2023/08/07 07:31:00;;;;;;;1.17;0.60;;;;;;;20.82;47.56;99261.69;4478925;32;32092;-74
2023/08/07 07:33:28;;;;;;;0.95;0.40;;;;;;;20.95;47.38;99258.09;4476763;32;33249;-73
2023/08/07 07:35:55;;;;;;;2.42;0.45;;;;;;;21.14;47.06;99253.59;4472168;32;33784;-73
2023/08/07 07:38:23;;;;;;;0.93;0.40;;;;;;;21.29;46.65;99246.47;4476175;32;33540;-74
2023/08/07 07:40:50;;;;;;;1.27;0.30;;;;;;;21.43;47.90;99259.53;4468267;32;33860;-74
2023/08/07 07:43:18;;;;;;;2.33;0.37;;;;;;;21.86;45.41;99259.19;4481711;32;33275;-74
2023/08/07 07:45:45;;;;;;;1.43;0.30;;;;;;;21.75;46.08;99257.53;4477459;32;33806;-73
2023/08/07 07:48:13;;;;;;;2.00;0.40;;;;;;;22.08;45.36;99258.09;4480056;32;33331;-73
2023/08/07 07:50:41;;;;;;;1.80;0.40;;;;;;;22.11;43.22;99260.66;4483928;32;33887;-73
2023/08/07 07:53:08;;;;;;;1.00;0.20;;;;;;;22.22;44.15;99267.63;4480594;32;32650;-74
2023/08/07 07:55:37;;;;;;;1.10;0.47;;;;;;;22.20;43.87;99265.00;4483572;32;33533;-73
2023/08/07 07:58:06;;;;;;;1.08;0.30;;;;;;;22.29;43.58;99267.56;4483578;32;33674;-74
2023/08/07 08:00:33;;;;;;;1.50;0.30;;;;;;;22.71;42.56;99277.59;4483320;32;33870;-74
2023/08/07 08:03:01;;;;;;;1.83;0.20;;;;;;;22.56;42.00;99276.91;4469247;32;33608;-75
2023/08/07 08:05:29;;;;;;;1.70;0.30;;;;;;;22.50;40.91;99284.03;4483453;32;33289;-73
2023/08/07 08:07:56;;;;;;;0.80;0.20;;;;;;;22.44;41.24;99279.69;4474140;32;34656;-76
2023/08/07 08:10:25;;;;;;;0.77;0.28;;;;;;;22.40;40.85;99293.81;4481270;32;33884;-74
2023/08/07 08:12:56;;;;;;;2.57;0.40;;;;;;;22.58;40.93;99290.09;4476890;32;33076;-73
2023/08/07 08:15:24;;;;;;;0.75;0.30;;;;;;;22.50;41.64;99300.75;4481923;32;33188;-73
2023/08/07 08:17:52;;;;;;;0.47;0.20;;;;;;;22.51;41.21;99294.56;4478727;32;34515;-74
2023/08/07 08:20:20;;;;;;;1.00;0.20;;;;;;;22.47;40.82;99306.06;4483617;32;34605;-73
2023/08/07 08:22:47;;;;;;;1.65;0.30;;;;;;;22.60;41.04;99295.34;4473264;32;33682;-74
2023/08/07 08:25:17;;;;;;;0.70;0.30;;;;;;;22.51;40.31;99318.31;4479508;32;34003;-74
2023/08/07 08:27:45;;;;;;;2.83;0.50;;;;;;;22.25;40.35;99313.34;4467701;32;33629;-74
2023/08/07 08:30:13;;;;;;;0.70;0.30;;;;;;;22.36;41.33;99323.75;4476272;32;33993;-74
2023/08/07 08:32:42;;;;;;;1.90;0.30;;;;;;;22.44;40.75;99321.91;4482059;32;33453;-73
2023/08/07 08:35:09;;;;;;;0.37;0.20;;;;;;;22.62;42.02;99330.50;4476715;32;33734;-75
2023/08/07 08:37:37;;;;;;;2.12;0.30;;;;;;;22.81;40.35;99325.88;4480740;32;33556;-74
2023/08/07 08:40:07;;;;;;;2.85;0.30;;;;;;;22.48;40.20;99334.19;4457551;32;35269;-75
2023/08/07 08:42:38;;;;;;;0.77;0.20;;;;;;;22.65;39.90;99331.34;4477813;32;32827;-74
2023/08/07 08:45:08;;;;;;;0.77;0.25;;;;;;;22.42;40.12;99334.25;4462677;32;33803;-75
2023/08/07 08:47:37;;;;;;;0.90;0.20;;;;;;;22.28;41.06;99346.72;4464640;32;33531;-74
2023/08/07 08:50:09;;;;;;;1.05;0.28;;;;;;;22.06;40.76;99346.91;4455685;32;33683;-75
2023/08/07 08:52:40;;;;;;;2.37;0.30;;;;;;;21.78;42.05;99349.75;4478826;32;32921;-74
2023/08/07 08:55:09;;;;;;;1.57;0.23;;;;;;;21.88;42.26;99357.59;4479059;32;32812;-73
2023/08/07 08:57:38;;;;;;;0.98;0.20;;;;;;;22.04;42.37;99353.97;4473288;32;32239;-72
2023/08/07 09:00:17;;;;;;;0.50;0.20;;;;;;;21.80;43.45;99357.66;4479720;32;32293;-72
2023/08/07 09:02:46;;;;;;;2.30;0.40;;;;;;;21.80;43.31;99352.38;4479125;32;32608;-74
2023/08/07 09:05:15;;;;;;;0.80;0.20;;;;;;;22.02;42.89;99361.00;4468673;32;34316;-75
2023/08/07 09:07:43;;;;;;;0.70;0.15;;;;;;;21.72;42.46;99363.00;4477024;32;34497;-74
2023/08/07 09:10:13;;;;;;;1.42;0.40;;;;;;;21.92;42.30;99344.41;4481333;32;33857;-73
2023/08/07 09:12:59;;;;;;;1.25;0.20;;;;;;;22.30;40.53;99352.84;4462329;32;33747;-74
2023/08/07 09:15:29;;;;;;;0.73;0.10;;;;;;;22.48;40.01;99365.84;4474344;32;33003;-73
2023/08/07 09:17:58;;;;;;;0.83;0.10;;;;;;;22.45;39.33;99360.63;4460015;32;32756;-75
2023/08/07 09:20:26;;;;;;;1.50;0.10;;;;;;;22.35;40.00;99372.16;4475120;32;33496;-73
2023/08/07 09:22:54;;;;;;;0.40;0.10;;;;;;;22.61;39.67;99376.28;4481754;32;33107;-74
2023/08/07 09:25:32;;;;;;;0.50;0.20;;;;;;;22.68;40.01;99356.84;4482445;32;34057;-74
2023/08/07 09:28:05;;;;;;;0.77;0.20;;;;;;;22.78;40.67;99374.34;4459932;32;32803;-74
2023/08/07 09:30:35;;;;;;;0.35;0.10;;;;;;;23.00;39.00;99359.09;4480607;32;33322;-74
2023/08/07 09:33:03;;;;;;;1.05;0.13;;;;;;;22.88;39.07;99368.03;4480741;32;32880;-75
2023/08/07 09:35:32;;;;;;;0.65;0.20;;;;;;;22.60;40.14;99367.50;4478450;32;33531;-73
2023/08/07 09:38:01;;;;;;;0.30;0.10;;;;;;;23.14;40.25;99358.94;4481969;32;33617;-75
2023/08/07 09:40:29;;;;;;;0.40;0.10;;;;;;;23.09;39.18;99374.00;4482542;32;33207;-75
2023/08/07 09:42:56;;;;;;;1.10;0.10;;;;;;;23.14;39.41;99382.72;4470753;32;33065;-74
2023/08/07 09:45:27;;;;;;;1.45;0.20;;;;;;;22.93;39.24;99384.72;4473754;32;32815;-75
2023/08/07 09:48:04;;;;;;;0.60;0.10;;;;;;;22.79;39.92;99402.47;4482907;32;33343;-76
2023/08/07 09:50:32;;;;;;;0.43;0.10;;;;;;;23.14;39.19;99388.00;4480246;32;33845;-74
2023/08/07 09:53:00;;;;;;;1.48;0.20;;;;;;;23.20;39.63;99387.94;4478342;32;33252;-75
2023/08/07 09:55:27;;;;;;;0.85;0.20;;;;;;;23.41;39.40;99391.16;4467556;32;34740;-76
2023/08/07 09:57:55;;;;;;;0.20;0.17;;;;;;;23.79;40.60;99395.91;4476470;32;34357;-76
2023/08/07 10:00:23;;;;;;;0.52;0.10;;;;;;;23.70;38.89;99391.63;4482649;32;33579;-74
2023/08/07 10:02:51;;;;;;;1.48;0.20;;;;;;;23.65;38.97;99396.09;4479893;32;33169;-75
2023/08/07 10:05:19;;;;;;;1.30;0.20;;;;;;;23.51;39.02;99392.78;4475152;32;33899;-75
2023/08/07 10:07:47;;;;;;;0.47;0.17;;;;;;;23.18;39.87;99384.44;4476181;32;33903;-76
2023/08/07 10:10:15;;;;;;;0.60;0.10;;;;;;;23.33;39.16;99400.09;4452043;32;32656;-74
2023/08/07 10:12:45;;;;;;;0.35;0.10;;;;;;;23.21;38.16;99399.37;4481349;32;32991;-74
2023/08/07 10:15:15;;;;;;;1.05;0.40;;;;;;;23.28;37.82;99407.19;4472764;32;33144;-76
2023/08/07 10:17:43;;;;;;;1.10;0.20;;;;;;;23.27;38.05;99389.56;4472408;32;34531;-75
2023/08/07 10:20:12;;;;;;;0.33;0.10;;;;;;;23.22;38.25;99395.81;4474276;32;33499;-75
2023/08/07 10:22:40;;;;;;;0.52;0.13;;;;;;;23.25;38.41;99391.37;4475549;32;34099;-75
2023/08/07 10:25:08;;;;;;;1.30;0.20;;;;;;;23.10;39.05;99391.56;4461022;32;33518;-75
2023/08/07 10:27:38;;;;;;;1.90;0.20;;;;;;;23.11;38.47;99410.06;4466348;32;34121;-74
2023/08/07 10:30:08;;;;;;;1.70;0.20;;;;;;;23.03;39.10;99408.41;4458554;32;32822;-74
2023/08/07 10:32:38;;;;;;;1.10;0.10;;;;;;;22.67;39.37;99418.44;4461951;32;32675;-73
2023/08/07 10:35:06;;;;;;;0.90;0.30;;;;;;;22.61;40.20;99403.56;4450891;32;32270;-74
2023/08/07 10:37:41;;;;;;;0.60;0.10;;;;;;;22.58;40.55;99415.03;4473648;32;33610;-74
2023/08/07 10:40:12;;;;;;;0.20;0.10;;;;;;;22.83;39.21;99425.34;4474183;32;32470;-74
2023/08/07 10:42:59;;;;;;;1.20;0.10;;;;;;;22.79;40.09;99423.59;4475005;32;33093;-75
2023/08/07 10:45:27;;;;;;;0.75;0.17;;;;;;;22.92;40.34;99422.56;4470946;32;34287;-73
2023/08/07 10:48:04;;;;;;;0.90;0.10;;;;;;;23.43;40.26;99407.88;4476290;32;33558;-74
2023/08/07 10:50:33;;;;;;;1.10;0.20;;;;;;;23.44;39.22;99428.13;4462439;32;32887;-74
2023/08/07 10:53:02;;;;;;;0.62;0.20;;;;;;;23.09;40.13;99426.81;4480965;32;34036;-73
2023/08/07 10:55:46;;;;;;;0.98;0.10;;;;;;;23.13;40.51;99424.09;4477822;32;33658;-75
2023/08/07 10:58:23;;;;;;;0.50;0.10;;;;;;;22.83;40.80;99427.97;4477069;32;32852;-74
2023/08/07 11:00:52;;;;;;;1.27;0.20;;;;;;;22.50;41.91;99432.72;4478946;32;33120;-73
2023/08/07 11:03:26;;;;;;;0.60;0.10;;;;;;;22.59;41.79;99437.00;4477299;32;33098;-76
2023/08/07 11:05:58;;;;;;;0.80;0.15;;;;;;;22.90;41.75;99432.28;4483659;32;32019;-76
2023/08/07 11:08:25;;;;;;;0.62;0.10;;;;;;;22.90;42.41;99437.56;4484074;32;34270;-73
2023/08/07 11:10:58;;;;;;;1.67;0.20;;;;;;;23.07;42.17;99440.03;4478690;32;33616;-74
2023/08/07 11:13:29;;;;;;;1.30;0.20;;;;;;;22.95;40.59;99456.00;4471769;32;33078;-75
2023/08/07 11:15:57;;;;;;;1.92;0.20;;;;;;;22.83;42.28;99448.19;4483154;32;34052;-75
2023/08/07 11:18:26;;;;;;;1.08;0.20;;;;;;;23.14;41.03;99461.97;4483431;32;33827;-75
2023/08/07 11:20:56;;;;;;;1.37;0.10;;;;;;;22.72;42.24;99465.03;4477883;32;33516;-75
2023/08/07 11:23:24;;;;;;;0.50;0.20;;;;;;;22.65;40.97;99473.03;4465432;32;32862;-75
2023/08/07 11:25:54;;;;;;;0.37;0.20;;;;;;;22.63;41.43;99459.84;4454491;32;32319;-73
2023/08/07 11:28:22;;;;;;;0.37;0.10;;;;;;;22.66;42.25;99457.19;4462587;32;33232;-74
2023/08/07 11:30:55;;;;;;;0.73;0.20;;;;;;;22.44;41.97;99453.84;4475179;32;34691;-75
2023/08/07 11:33:26;;;;;;;0.37;0.20;;;;;;;22.49;42.92;99473.19;4471531;32;32229;-74
2023/08/07 11:35:54;;;;;;;2.45;0.20;;;;;;;22.38;41.76;99480.31;4476586;32;32718;-74
2023/08/07 11:38:43;;;;;;;0.40;0.20;;;;;;;22.10;43.23;99474.38;4478123;32;33745;-74
2023/08/07 11:41:12;;;;;;;0.70;0.20;;;;;;;21.96;44.23;99477.06;4476762;32;32720;-77
2023/08/07 11:43:41;;;;;;;0.90;0.20;;;;;;;22.17;42.97;99487.50;4476747;32;33154;-73